Terminal Aerodrome Forecast
Issued by NWS Omaha/Valley, NE

Home | Current Version | Previous Version | Graphics & Text | Print | Product List | Glossary On
Versions: 1 2 3 4 5 6 7 8 9 10 11 12 13 14 15
000
FTUS43 KOAX 290520
TAFOFK
TAF
KOFK 290520Z 2906/3006 18004KT P6SM BKN150
     FM291400 13008KT P6SM BKN090
     FM292000 16010KT P6SM VCTS OVC050CB
     FM300000 34010KT P6SM OVC090=

USA.gov is the U.S. government's official web portal to all federal, state and local government web resources and services.